Time;durP1;ratioP1;P1;durP2;ratioP2;P2;SDS_P1;SDS_P2;PMS_P1;PMS_P2;Temp;Humidity;BMP_temperature;BMP_pressure;BME280_temperature;BME280_humidity;BME280_pressure;Samples;Min_cycle;Max_cycle;Signal;HPM_P1;HPM_P2
2022/04/11 00:02:24;;;;;;;4.23;1.20;;;1.80;99.90;;;;;;5074453;28;20036;-76
2022/04/11 00:04:50;;;;;;;2.70;1.10;;;1.80;99.90;;;;;;5054690;28;20048;-76
2022/04/11 00:07:15;;;;;;;3.27;1.03;;;1.80;99.90;;;;;;5042068;28;20041;-76
2022/04/11 00:09:43;;;;;;;3.33;1.67;;;1.80;99.90;;;;;;5076379;28;21749;-75
2022/04/11 00:12:10;;;;;;;3.80;1.00;;;1.70;99.90;;;;;;5054452;28;20151;-76
2022/04/11 00:14:36;;;;;;;6.17;1.50;;;1.90;99.90;;;;;;5067247;28;20336;-76
2022/04/11 00:17:03;;;;;;;2.33;1.00;;;1.70;99.90;;;;;;5073861;28;20311;-76
2022/04/11 00:19:29;;;;;;;5.40;1.37;;;1.70;99.90;;;;;;5054175;28;20305;-76
2022/04/11 00:21:54;;;;;;;3.10;1.20;;;1.70;99.90;;;;;;5054777;28;20678;-76
2022/04/11 00:24:20;;;;;;;2.43;1.20;;;1.70;99.90;;;;;;5054764;28;20486;-74
2022/04/11 00:26:46;;;;;;;4.73;1.23;;;1.70;99.90;;;;;;5061196;28;20127;-76
2022/04/11 00:29:13;;;;;;;2.03;1.10;;;1.70;99.90;;;;;;5071662;28;20406;-76
2022/04/11 00:31:40;;;;;;;3.37;1.30;;;1.60;99.90;;;;;;5054176;28;20040;-76
2022/04/11 00:34:06;;;;;;;3.83;1.37;;;1.60;99.90;;;;;;5059162;28;20302;-76
2022/04/11 00:36:32;;;;;;;4.77;1.30;;;1.60;99.90;;;;;;5070313;28;20036;-76
2022/04/11 00:38:58;;;;;;;3.10;1.03;;;1.60;99.90;;;;;;5044728;28;20675;-76
2022/04/11 00:41:24;;;;;;;1.57;0.80;;;1.60;99.90;;;;;;5049501;28;20063;-76
2022/04/11 00:43:51;;;;;;;1.87;0.93;;;1.60;99.90;;;;;;5054530;28;20305;-76
2022/04/11 00:46:18;;;;;;;1.30;0.87;;;1.50;99.90;;;;;;5033326;28;20303;-75
2022/04/11 00:48:43;;;;;;;3.00;1.03;;;1.50;99.90;;;;;;5070152;28;20064;-76
2022/04/11 00:51:11;;;;;;;3.20;1.10;;;1.50;99.90;;;;;;5070424;28;20306;-76
2022/04/11 00:53:41;;;;;;;4.37;1.97;;;1.40;99.90;;;;;;5054265;28;20673;-76
2022/04/11 00:56:10;;;;;;;4.60;1.27;;;1.40;99.90;;;;;;5053361;28;20306;-76
2022/04/11 00:58:36;;;;;;;2.43;1.13;;;1.40;99.90;;;;;;5053927;28;20308;-76
2022/04/11 01:01:01;;;;;;;4.50;1.40;;;1.30;99.90;;;;;;5053762;28;20329;-76
2022/04/11 01:03:30;;;;;;;2.30;1.30;;;1.30;99.90;;;;;;5070714;28;20051;-76
2022/04/11 01:05:56;;;;;;;3.17;1.23;;;1.30;99.90;;;;;;5059482;28;20071;-77
2022/04/11 01:08:22;;;;;;;4.27;1.07;;;1.30;99.90;;;;;;5053361;28;20314;-76
2022/04/11 01:10:48;;;;;;;4.20;1.30;;;1.30;99.90;;;;;;5070116;28;20041;-76
2022/04/11 01:13:15;;;;;;;4.93;1.20;;;1.40;99.90;;;;;;5053529;28;20097;-77
2022/04/11 01:15:41;;;;;;;5.37;1.20;;;1.20;99.90;;;;;;5048795;28;20344;-77
2022/04/11 01:18:06;;;;;;;2.03;1.10;;;1.20;99.90;;;;;;5058348;28;20294;-77
2022/04/11 01:20:33;;;;;;;2.50;1.57;;;1.20;99.90;;;;;;5053568;28;20047;-79
2022/04/11 01:23:00;;;;;;;1.87;1.20;;;1.20;99.90;;;;;;5078178;28;20071;-80
2022/04/11 01:25:26;;;;;;;2.87;1.80;;;1.20;99.90;;;;;;5060277;28;20321;-79
2022/04/11 01:27:53;;;;;;;3.33;2.17;;;1.20;99.90;;;;;;5062709;28;20751;-79
2022/04/11 01:30:18;;;;;;;5.90;2.53;;;1.20;99.90;;;;;;5078676;28;20047;-78
2022/04/11 01:32:46;;;;;;;5.00;2.47;;;1.20;99.90;;;;;;5060945;28;20305;-79
2022/04/11 01:35:20;;;;;;;8.23;2.43;;;1.20;99.90;;;;;;5067154;28;20365;-79
2022/04/11 01:37:46;;;;;;;3.63;2.35;;;1.20;99.90;;;;;;5064981;28;20040;-80
2022/04/11 01:40:13;;;;;;;8.03;2.83;;;1.20;99.90;;;;;;5091899;28;20380;-79
2022/04/11 01:42:39;;;;;;;5.73;2.77;;;1.20;99.90;;;;;;5076934;28;20356;-78
2022/04/11 01:45:09;;;;;;;5.13;2.60;;;1.20;99.90;;;;;;5043948;28;20820;-79
2022/04/11 01:47:35;;;;;;;3.77;2.57;;;1.10;99.90;;;;;;5060268;28;20071;-79
2022/04/11 01:50:01;;;;;;;6.60;2.40;;;1.20;99.90;;;;;;5061127;28;20298;-79
2022/04/11 01:52:27;;;;;;;5.40;2.60;;;1.10;99.90;;;;;;5071433;28;20047;-79
2022/04/11 01:54:52;;;;;;;6.20;2.40;;;1.10;99.90;;;;;;5059581;28;20123;-79
2022/04/11 01:57:19;;;;;;;4.63;2.33;;;1.10;99.90;;;;;;5054400;28;20041;-80
2022/04/11 01:59:45;;;;;;;6.30;2.57;;;1.10;99.90;;;;;;5060056;28;20052;-79
2022/04/11 02:02:11;;;;;;;6.23;2.67;;;1.10;99.90;;;;;;5044247;28;20299;-82
2022/04/11 02:04:37;;;;;;;4.67;2.30;;;1.10;99.90;;;;;;5059344;28;20407;-78
2022/04/11 02:07:03;;;;;;;4.57;1.83;;;1.10;99.90;;;;;;5060729;28;20295;-79
2022/04/11 02:09:29;;;;;;;6.67;2.10;;;1.10;99.90;;;;;;5059926;28;20044;-79
2022/04/11 02:11:55;;;;;;;4.07;1.70;;;1.10;99.90;;;;;;5059987;28;20299;-79
2022/04/11 02:14:22;;;;;;;3.80;1.80;;;1.00;99.90;;;;;;5061277;28;20036;-79
2022/04/11 02:16:48;;;;;;;7.20;2.00;;;1.10;99.90;;;;;;5057594;28;20311;-78
2022/04/11 02:19:14;;;;;;;6.53;1.90;;;1.10;99.90;;;;;;5042200;28;20299;-79
2022/04/11 02:21:40;;;;;;;5.43;2.03;;;1.10;99.90;;;;;;5093925;28;20104;-78
2022/04/11 02:24:06;;;;;;;2.60;1.57;;;1.10;99.90;;;;;;5076008;28;20041;-79
2022/04/11 02:26:32;;;;;;;4.10;2.10;;;1.10;99.90;;;;;;5078887;28;20080;-79
2022/04/11 02:28:58;;;;;;;4.57;1.93;;;1.10;99.90;;;;;;5062976;28;20334;-79
2022/04/11 02:31:25;;;;;;;5.77;2.00;;;1.10;99.90;;;;;;5055027;28;20310;-79
2022/04/11 02:33:51;;;;;;;3.57;2.13;;;1.10;99.90;;;;;;5079702;28;20309;-79
2022/04/11 02:36:17;;;;;;;5.60;2.27;;;1.10;99.90;;;;;;5046627;28;20382;-79
2022/04/11 02:38:43;;;;;;;4.47;1.93;;;1.10;99.90;;;;;;5061744;28;20054;-79
2022/04/11 02:41:09;;;;;;;4.93;2.20;;;1.20;99.90;;;;;;5064374;28;20093;-78
2022/04/11 02:43:42;;;;;;;5.07;1.80;;;1.10;99.90;;;;;;5046863;28;20036;-79
2022/04/11 02:46:09;;;;;;;3.70;1.80;;;1.20;99.90;;;;;;5079606;28;20355;-80
2022/04/11 02:48:39;;;;;;;5.53;1.93;;;1.20;99.90;;;;;;5079288;28;20767;-79
2022/04/11 02:51:14;;;;;;;4.97;1.90;;;1.20;99.90;;;;;;5077250;28;20337;-79
2022/04/11 02:53:47;;;;;;;3.70;2.03;;;1.20;99.90;;;;;;5088594;28;20298;-78
2022/04/11 02:56:13;;;;;;;3.97;1.90;;;1.20;99.90;;;;;;5065659;28;20812;-78
2022/04/11 02:58:39;;;;;;;3.63;1.63;;;1.20;99.90;;;;;;5079363;28;20306;-78
2022/04/11 03:01:04;;;;;;;4.43;1.80;;;1.20;99.90;;;;;;5063445;28;20036;-79
2022/04/11 03:03:31;;;;;;;2.90;1.57;;;1.20;99.90;;;;;;5063198;28;20044;-78
2022/04/11 03:06:00;;;;;;;4.17;1.80;;;1.20;99.90;;;;;;5062801;28;20303;-79
2022/04/11 03:08:27;;;;;;;4.33;1.77;;;1.20;99.90;;;;;;5062744;28;20307;-79
2022/04/11 03:10:53;;;;;;;4.43;1.77;;;1.20;99.90;;;;;;5061928;28;20314;-79
2022/04/11 03:13:19;;;;;;;4.63;1.53;;;1.10;99.90;;;;;;5064916;28;20032;-79
2022/04/11 03:15:45;;;;;;;5.43;1.80;;;1.10;99.90;;;;;;5061110;28;20317;-82
2022/04/11 03:18:11;;;;;;;4.90;2.10;;;1.10;99.90;;;;;;5077463;28;20333;-79
2022/04/11 03:20:38;;;;;;;2.90;1.77;;;1.10;99.90;;;;;;5061475;28;20703;-79
2022/04/11 03:23:05;;;;;;;4.83;1.67;;;1.00;99.90;;;;;;5061776;28;20333;-78
2022/04/11 03:25:36;;;;;;;4.43;1.90;;;1.00;99.90;;;;;;5060703;28;20044;-78
2022/04/11 03:28:03;;;;;;;3.47;1.87;;;1.00;99.90;;;;;;5061893;28;20348;-79
2022/04/11 03:30:30;;;;;;;4.23;2.03;;;1.00;99.90;;;;;;5062200;28;20310;-81
2022/04/11 03:32:56;;;;;;;3.27;1.83;;;1.00;99.90;;;;;;5061596;28;20299;-78
2022/04/11 03:35:24;;;;;;;4.70;1.90;;;1.00;99.90;;;;;;5061683;28;20044;-78
2022/04/11 03:37:50;;;;;;;5.37;2.50;;;0.90;99.90;;;;;;5060582;28;20302;-78
2022/04/11 03:40:22;;;;;;;2.50;2.00;;;0.90;99.90;;;;;;5045319;28;20669;-79
2022/04/11 03:42:48;;;;;;;6.17;2.10;;;0.90;99.90;;;;;;5061917;28;20306;-78
2022/04/11 03:45:14;;;;;;;3.30;2.10;;;0.90;99.90;;;;;;5060902;28;20356;-80
2022/04/11 03:47:42;;;;;;;5.47;2.53;;;0.90;99.90;;;;;;5061174;28;20036;-83
2022/04/11 03:50:11;;;;;;;5.73;2.30;;;0.90;99.90;;;;;;5053752;28;20295;-79
2022/04/11 03:52:39;;;;;;;5.47;2.20;;;1.00;99.90;;;;;;5052813;28;20311;-79
2022/04/11 03:55:09;;;;;;;7.60;2.57;;;1.00;99.90;;;;;;5045405;28;20793;-78
2022/04/11 03:57:37;;;;;;;4.73;2.60;;;1.00;99.90;;;;;;5062364;28;20299;-79
2022/04/11 04:00:04;;;;;;;4.50;2.67;;;1.10;99.90;;;;;;5048799;28;20299;-80
2022/04/11 04:02:43;;;;;;;5.27;2.47;;;1.10;99.90;;;;;;5078789;28;20295;-78
2022/04/11 04:05:09;;;;;;;6.80;2.67;;;1.20;99.90;;;;;;5061050;28;20412;-78
2022/04/11 04:07:36;;;;;;;4.23;2.17;;;1.20;99.90;;;;;;5062051;28;20336;-79
2022/04/11 04:10:03;;;;;;;4.70;2.27;;;1.30;99.90;;;;;;5077913;28;20301;-79
2022/04/11 04:12:28;;;;;;;5.10;2.40;;;1.30;99.90;;;;;;5061386;28;20358;-79
2022/04/11 04:15:03;;;;;;;4.30;2.20;;;1.30;99.90;;;;;;5060801;28;20298;-80
2022/04/11 04:17:29;;;;;;;4.63;2.60;;;1.40;99.90;;;;;;5041491;28;20322;-79
2022/04/11 04:20:00;;;;;;;6.17;2.63;;;1.40;99.90;;;;;;5060960;28;20297;-80
2022/04/11 04:22:27;;;;;;;5.87;2.50;;;1.40;99.90;;;;;;5061637;28;20314;-79
2022/04/11 04:24:53;;;;;;;4.10;2.23;;;1.50;99.90;;;;;;5078186;28;20302;-79
2022/04/11 04:27:21;;;;;;;4.17;2.40;;;1.50;99.90;;;;;;5060538;28;20374;-80
2022/04/11 04:29:47;;;;;;;9.90;2.80;;;1.50;99.90;;;;;;5061453;28;20326;-79
2022/04/11 04:32:14;;;;;;;8.20;2.60;;;1.60;99.90;;;;;;5063349;28;20060;-80
2022/04/11 04:34:42;;;;;;;7.07;2.73;;;1.50;99.90;;;;;;5061913;28;20040;-79
2022/04/11 04:37:08;;;;;;;3.50;2.27;;;1.50;99.90;;;;;;5061515;28;20315;-79
2022/04/11 04:39:34;;;;;;;4.47;2.20;;;1.60;99.90;;;;;;5078343;28;20294;-80
2022/04/11 04:42:00;;;;;;;5.57;1.90;;;1.60;99.90;;;;;;5060801;28;20736;-79
2022/04/11 04:44:26;;;;;;;4.17;1.83;;;1.60;99.90;;;;;;5061358;28;20036;-79
2022/04/11 04:46:56;;;;;;;2.60;1.80;;;1.70;99.90;;;;;;5061409;28;20048;-78
2022/04/11 04:49:44;;;;;;;5.07;2.40;;;1.70;99.90;;;;;;5059409;28;20306;-79
2022/04/11 04:52:13;;;;;;;5.23;2.20;;;1.70;99.90;;;;;;5061910;28;20323;-78
2022/04/11 04:54:51;;;;;;;8.50;2.43;;;1.70;99.90;;;;;;5056292;28;20364;-81
2022/04/11 04:57:18;;;;;;;6.30;2.80;;;1.80;99.90;;;;;;5045759;28;20349;-80
2022/04/11 04:59:43;;;;;;;3.90;2.10;;;1.80;99.90;;;;;;5061210;28;20298;-78
2022/04/11 05:02:15;;;;;;;5.57;2.80;;;1.80;99.90;;;;;;5062230;28;20040;-80
2022/04/11 05:04:42;;;;;;;5.43;2.70;;;2.00;99.90;;;;;;5058710;28;20310;-79
2022/04/11 05:07:09;;;;;;;3.50;2.17;;;1.90;99.90;;;;;;5059064;28;20845;-78
2022/04/11 05:09:37;;;;;;;3.67;2.20;;;1.90;99.90;;;;;;5092446;28;20864;-79
2022/04/11 05:12:04;;;;;;;5.03;2.27;;;2.00;99.90;;;;;;5061370;28;20337;-78
2022/04/11 05:14:30;;;;;;;3.93;2.10;;;2.00;99.90;;;;;;5060468;28;20071;-80
2022/04/11 05:17:04;;;;;;;5.07;2.30;;;2.10;99.90;;;;;;5057555;28;20306;-78
2022/04/11 05:19:29;;;;;;;8.50;2.30;;;2.10;99.90;;;;;;5057943;28;20310;-79
2022/04/11 05:21:56;;;;;;;4.83;2.03;;;2.10;99.90;;;;;;5062335;28;20344;-79
2022/04/11 05:24:24;;;;;;;4.97;2.30;;;2.20;99.90;;;;;;5060970;28;20060;-80
2022/04/11 05:26:49;;;;;;;5.13;2.70;;;2.20;99.90;;;;;;5042761;28;20303;-78
2022/04/11 05:29:15;;;;;;;5.13;2.90;;;2.30;99.90;;;;;;5057784;28;20674;-78
2022/04/11 05:31:41;;;;;;;3.23;2.27;;;2.30;99.90;;;;;;5062462;28;20044;-79
2022/04/11 05:34:07;;;;;;;6.30;2.60;;;2.40;99.90;;;;;;5062673;28;20044;-80
2022/04/11 05:36:33;;;;;;;2.03;1.53;;;2.40;99.90;;;;;;5062809;28;20314;-78
2022/04/11 05:39:00;;;;;;;3.23;2.10;;;2.60;99.90;;;;;;5063731;28;20500;-79
2022/04/11 05:41:28;;;;;;;4.57;2.23;;;2.60;99.90;;;;;;5061800;28;20038;-80
2022/04/11 05:43:54;;;;;;;4.00;2.30;;;2.60;99.90;;;;;;5083236;28;20366;-78
2022/04/11 05:46:24;;;;;;;5.43;2.70;;;2.70;99.90;;;;;;5058223;28;20048;-78
2022/04/11 05:48:59;;;;;;;10.13;3.47;;;2.70;99.90;;;;;;5059317;28;20299;-78
2022/04/11 05:51:26;;;;;;;4.50;2.80;;;2.80;99.90;;;;;;5059832;28;20302;-78
2022/04/11 05:53:52;;;;;;;3.90;2.57;;;2.70;99.90;;;;;;5078875;28;20040;-77
2022/04/11 05:56:19;;;;;;;5.87;2.60;;;2.80;99.90;;;;;;5061287;28;20816;-78
2022/04/11 05:58:45;;;;;;;6.03;2.90;;;2.90;99.90;;;;;;5078559;28;20040;-78
2022/04/11 06:01:11;;;;;;;5.10;3.40;;;2.90;99.90;;;;;;5078248;28;20310;-77
2022/04/11 06:03:38;;;;;;;5.13;3.27;;;3.00;99.90;;;;;;5076448;28;20306;-79
2022/04/11 06:06:05;;;;;;;4.60;2.80;;;3.00;99.90;;;;;;5075464;28;20032;-78
2022/04/11 06:08:31;;;;;;;5.53;2.70;;;3.10;99.90;;;;;;5076138;28;20294;-77
2022/04/11 06:10:56;;;;;;;5.50;2.73;;;3.20;99.90;;;;;;5079857;28;20302;-77
2022/04/11 06:13:24;;;;;;;5.27;2.33;;;3.20;99.90;;;;;;5062664;28;20062;-77
2022/04/11 06:15:55;;;;;;;6.83;2.60;;;3.20;99.90;;;;;;5079783;28;20344;-78
2022/04/11 06:18:21;;;;;;;6.10;2.30;;;3.20;99.90;;;;;;5081278;28;20977;-77
2022/04/11 06:20:47;;;;;;;7.53;2.77;;;3.20;99.90;;;;;;5056609;28;20329;-78
2022/04/11 06:23:14;;;;;;;5.50;2.83;;;3.30;99.90;;;;;;5077151;28;20049;-78
2022/04/11 06:25:40;;;;;;;5.33;2.13;;;3.40;99.90;;;;;;5060354;28;20389;-77
2022/04/11 06:28:06;;;;;;;5.23;2.50;;;3.50;99.90;;;;;;5077027;28;20055;-77
2022/04/11 06:30:33;;;;;;;7.33;2.53;;;3.70;99.90;;;;;;5076790;28;20481;-78
2022/04/11 06:32:59;;;;;;;4.63;2.30;;;3.80;99.90;;;;;;5091162;28;20076;-77
2022/04/11 06:35:25;;;;;;;7.57;2.43;;;3.90;99.90;;;;;;5063114;28;20049;-77
2022/04/11 06:37:51;;;;;;;4.07;2.23;;;4.00;99.90;;;;;;5080499;28;20067;-77
2022/04/11 06:40:17;;;;;;;8.63;2.70;;;4.00;99.90;;;;;;5094570;28;20048;-77
2022/04/11 06:42:44;;;;;;;5.00;2.20;;;4.10;99.90;;;;;;5060651;28;20448;-77
2022/04/11 06:45:30;;;;;;;6.97;2.57;;;4.20;99.90;;;;;;5074384;28;20310;-77
2022/04/11 06:48:01;;;;;;;8.03;2.60;;;4.10;99.90;;;;;;5082095;28;20835;-77
2022/04/11 06:50:28;;;;;;;6.67;2.80;;;4.20;99.90;;;;;;5075246;28;20120;-78
2022/04/11 06:52:54;;;;;;;5.67;2.83;;;4.20;99.90;;;;;;5057483;28;20083;-78
2022/04/11 06:55:20;;;;;;;8.90;2.80;;;4.30;99.90;;;;;;5079731;28;20044;-77
2022/04/11 06:57:45;;;;;;;5.03;2.50;;;4.40;99.90;;;;;;5061093;28;20380;-78
2022/04/11 07:00:12;;;;;;;6.10;3.13;;;4.50;99.90;;;;;;5077931;28;20040;-77
2022/04/11 07:02:37;;;;;;;6.77;2.80;;;4.60;99.90;;;;;;5061915;28;20052;-77
2022/04/11 07:05:06;;;;;;;6.00;3.03;;;4.70;99.90;;;;;;5075380;28;20036;-78
2022/04/11 07:07:33;;;;;;;5.57;2.93;;;4.80;99.90;;;;;;5080154;28;20171;-77
2022/04/11 07:10:00;;;;;;;7.33;3.27;;;4.80;99.90;;;;;;5078290;28;20123;-80
2022/04/11 07:12:25;;;;;;;6.50;3.20;;;4.90;99.90;;;;;;5077835;28;20048;-78
2022/04/11 07:14:52;;;;;;;5.60;3.30;;;5.00;99.90;;;;;;5079308;28;20047;-77
2022/04/11 07:17:17;;;;;;;5.43;3.40;;;5.10;99.90;;;;;;5082849;28;20040;-77
2022/04/11 07:19:43;;;;;;;7.27;3.90;;;5.20;99.90;;;;;;5079931;28;20086;-78
2022/04/11 07:22:10;;;;;;;5.67;3.77;;;5.30;99.90;;;;;;5076681;28;20501;-78
2022/04/11 07:24:37;;;;;;;9.70;3.67;;;5.40;99.90;;;;;;5082664;28;20052;-82
2022/04/11 07:27:04;;;;;;;10.20;4.27;;;5.50;99.90;;;;;;5085675;28;20040;-77
2022/04/11 07:29:30;;;;;;;12.20;4.17;;;5.50;99.90;;;;;;5087152;28;20420;-78
2022/04/11 07:31:55;;;;;;;8.33;3.93;;;5.60;99.90;;;;;;5085872;28;20055;-78
2022/04/11 07:34:21;;;;;;;8.67;4.47;;;5.70;99.90;;;;;;5085956;28;20055;-77
2022/04/11 07:36:47;;;;;;;7.70;3.97;;;5.70;99.90;;;;;;5081478;28;20048;-79
2022/04/11 07:39:15;;;;;;;9.10;3.80;;;5.70;99.90;;;;;;5087456;28;20551;-77
2022/04/11 07:41:40;;;;;;;9.50;3.40;;;5.90;99.90;;;;;;5087498;28;20055;-78
2022/04/11 07:44:06;;;;;;;10.23;3.90;;;6.00;99.90;;;;;;5084864;28;20040;-77
2022/04/11 07:46:32;;;;;;;7.93;3.90;;;6.10;99.90;;;;;;5086432;28;20070;-79
2022/04/11 07:48:58;;;;;;;6.77;4.03;;;6.10;99.90;;;;;;5083454;28;20105;-76
2022/04/11 07:51:24;;;;;;;8.77;3.80;;;6.20;99.90;;;;;;5082434;28;20048;-77
2022/04/11 07:53:49;;;;;;;7.93;3.87;;;6.30;99.90;;;;;;5086110;28;20048;-77
2022/04/11 07:56:16;;;;;;;8.30;3.90;;;6.40;99.90;;;;;;5067039;28;20052;-79
2022/04/11 07:58:42;;;;;;;10.37;3.90;;;6.60;99.90;;;;;;5080459;28;20037;-77
2022/04/11 08:01:10;;;;;;;5.60;4.00;;;6.70;99.90;;;;;;5077906;28;20100;-77
2022/04/11 08:03:36;;;;;;;7.50;3.83;;;6.80;99.90;;;;;;5080806;28;20035;-77
2022/04/11 08:06:02;;;;;;;8.67;4.40;;;7.00;99.90;;;;;;5069976;28;20055;-77
2022/04/11 08:08:28;;;;;;;10.00;3.70;;;7.10;99.90;;;;;;5089911;28;20039;-77
2022/04/11 08:10:53;;;;;;;8.93;4.17;;;7.20;99.90;;;;;;5090091;28;20036;-77
2022/04/11 08:13:21;;;;;;;7.03;4.27;;;7.40;99.90;;;;;;5083540;28;20044;-77
2022/04/11 08:15:46;;;;;;;6.70;3.90;;;7.50;99.90;;;;;;5066662;28;20068;-77
2022/04/11 08:18:12;;;;;;;8.83;4.27;;;7.70;99.90;;;;;;5085787;28;20039;-77
2022/04/11 08:20:38;;;;;;;7.63;4.00;;;7.80;99.90;;;;;;5083497;28;20056;-77
2022/04/11 08:23:04;;;;;;;7.27;4.10;;;8.00;99.90;;;;;;5063820;28;20115;-77
2022/04/11 08:25:30;;;;;;;6.80;4.17;;;8.20;99.90;;;;;;5084277;28;20078;-77
2022/04/11 08:27:56;;;;;;;8.60;4.30;;;8.30;99.90;;;;;;5085337;28;20040;-79
2022/04/11 08:30:23;;;;;;;8.83;4.47;;;8.60;99.90;;;;;;5083206;28;20119;-79
2022/04/11 08:32:51;;;;;;;8.57;4.37;;;8.90;99.90;;;;;;5084715;28;20414;-77
2022/04/11 08:35:19;;;;;;;11.07;4.00;;;9.20;99.90;;;;;;5082256;28;20060;-79
2022/04/11 08:37:45;;;;;;;7.63;4.40;;;9.50;99.90;;;;;;5076886;28;20113;-77
2022/04/11 08:40:12;;;;;;;9.47;4.70;;;9.60;99.90;;;;;;5080569;28;20067;-77
2022/04/11 08:42:38;;;;;;;7.20;4.37;;;9.80;99.90;;;;;;5081152;28;20048;-77
2022/04/11 08:45:05;;;;;;;7.63;4.07;;;10.00;99.90;;;;;;5070171;28;20043;-78
2022/04/11 08:47:32;;;;;;;6.63;3.70;;;10.10;99.90;;;;;;5083872;28;20153;-78
2022/04/11 08:50:00;;;;;;;8.53;4.33;;;10.20;99.90;;;;;;5099048;28;20487;-78
2022/04/11 08:52:26;;;;;;;6.13;3.87;;;10.40;99.90;;;;;;5079694;28;20052;-77
2022/04/11 08:54:52;;;;;;;9.17;3.83;;;10.70;99.90;;;;;;5052013;28;20048;-78
2022/04/11 08:57:18;;;;;;;11.00;4.50;;;10.90;99.90;;;;;;5085379;28;20036;-77
2022/04/11 08:59:44;;;;;;;7.13;3.47;;;11.10;99.90;;;;;;5066082;28;20048;-77
2022/04/11 09:02:10;;;;;;;6.10;2.90;;;11.50;99.90;;;;;;5086608;28;20064;-77
2022/04/11 09:04:50;;;;;;;5.83;2.83;;;12.00;99.90;;;;;;5086513;28;20167;-79
2022/04/11 09:07:16;;;;;;;5.87;2.50;;;12.70;99.90;;;;;;5076751;28;20147;-80
2022/04/11 09:09:41;;;;;;;6.63;2.60;;;13.30;99.10;;;;;;5084884;28;20166;-77
2022/04/11 09:12:09;;;;;;;8.63;3.13;;;13.70;97.70;;;;;;5066871;28;20036;-78
2022/04/11 09:14:37;;;;;;;7.60;2.73;;;13.70;96.00;;;;;;5086506;28;20108;-79
2022/04/11 09:17:04;;;;;;;6.63;2.60;;;13.90;94.70;;;;;;5089705;28;20050;-79
2022/04/11 09:19:31;;;;;;;6.10;2.70;;;14.00;95.00;;;;;;5083468;28;20472;-78
2022/04/11 09:21:58;;;;;;;6.60;2.70;;;14.20;94.80;;;;;;5085693;28;20040;-80
2022/04/11 09:24:26;;;;;;;7.37;2.70;;;14.30;94.20;;;;;;5068362;28;20044;-83
2022/04/11 09:26:56;;;;;;;4.97;2.30;;;14.50;96.30;;;;;;5083844;28;20052;-79
2022/04/11 09:29:23;;;;;;;5.63;2.30;;;14.90;97.10;;;;;;5085093;28;20478;-78
2022/04/11 09:31:49;;;;;;;7.30;2.13;;;15.40;97.10;;;;;;5083671;28;20040;-77
2022/04/11 09:34:17;;;;;;;5.57;2.27;;;16.10;92.00;;;;;;5083497;28;20044;-77
2022/04/11 09:36:48;;;;;;;4.87;2.03;;;16.80;90.50;;;;;;5088955;28;20043;-76
2022/04/11 09:39:19;;;;;;;4.43;2.00;;;17.40;71.80;;;;;;5091063;28;20182;-77
2022/04/11 09:41:46;;;;;;;7.03;2.13;;;18.10;67.20;;;;;;5090074;28;20461;-77
2022/04/11 09:44:22;;;;;;;5.57;2.53;;;18.50;67.30;;;;;;5081763;28;20580;-78
2022/04/11 09:46:49;;;;;;;4.90;1.90;;;18.90;63.30;;;;;;5077204;28;20112;-76
2022/04/11 09:49:15;;;;;;;7.03;2.63;;;19.20;62.90;;;;;;5087578;28;20037;-76
2022/04/11 09:52:07;;;;;;;5.70;2.40;;;19.50;63.30;;;;;;5084324;28;20052;-76
2022/04/11 09:54:35;;;;;;;3.53;2.10;;;20.10;57.30;;;;;;5086301;28;20060;-77
2022/04/11 09:57:03;;;;;;;4.93;1.97;;;20.30;54.80;;;;;;5088170;28;20040;-76
2022/04/11 09:59:29;;;;;;;3.97;1.70;;;20.40;45.20;;;;;;5092996;28;20047;-76
2022/04/11 10:01:57;;;;;;;4.60;1.83;;;20.50;46.90;;;;;;5085767;28;20032;-77
2022/04/11 10:04:23;;;;;;;5.03;2.40;;;20.80;48.30;;;;;;5088710;28;20558;-78
2022/04/11 10:06:49;;;;;;;4.47;2.10;;;20.90;47.80;;;;;;5086793;28;20087;-79
2022/04/11 10:09:16;;;;;;;5.73;2.60;;;20.90;47.60;;;;;;5094734;28;20040;-77
2022/04/11 10:11:44;;;;;;;6.07;2.47;;;20.80;46.30;;;;;;5083135;28;20045;-76
2022/04/11 10:14:11;;;;;;;7.77;3.97;;;21.00;46.50;;;;;;5077021;28;20048;-76
2022/04/11 10:16:42;;;;;;;7.37;3.47;;;21.10;45.80;;;;;;5051578;28;20044;-78
2022/04/11 10:19:09;;;;;;;7.07;3.60;;;20.90;44.10;;;;;;5064282;28;20043;-77
2022/04/11 10:21:39;;;;;;;7.73;3.97;;;21.10;46.30;;;;;;5086432;28;20032;-78
2022/04/11 10:24:06;;;;;;;6.70;4.47;;;21.20;42.50;;;;;;5076013;28;20056;-76
2022/04/11 10:26:45;;;;;;;10.47;4.73;;;21.40;45.10;;;;;;5083744;28;20033;-76
2022/04/11 10:29:30;;;;;;;8.57;5.20;;;21.60;43.50;;;;;;5105844;28;20135;-78
2022/04/11 10:32:06;;;;;;;7.80;3.87;;;21.50;40.60;;;;;;5085619;28;20040;-77
2022/04/11 10:34:46;;;;;;;6.70;3.67;;;21.50;41.30;;;;;;5090265;28;20044;-78
2022/04/11 10:37:12;;;;;;;6.90;4.53;;;21.60;44.10;;;;;;5091151;28;20036;-81
2022/04/11 10:39:39;;;;;;;6.37;3.90;;;22.10;46.70;;;;;;5083446;28;20094;-79
2022/04/11 10:42:11;;;;;;;7.40;3.77;;;22.60;44.60;;;;;;5063941;28;20033;-77
2022/04/11 10:44:41;;;;;;;8.07;4.50;;;23.00;46.50;;;;;;5080465;28;20049;-77
2022/04/11 10:47:35;;;;;;;7.83;4.40;;;23.10;38.00;;;;;;5078142;28;20036;-76
2022/04/11 10:50:34;;;;;;;6.32;3.80;;;22.60;42.10;;;;;;5062434;28;20043;-77
2022/04/11 10:53:13;;;;;;;5.77;3.87;;;22.40;43.60;;;;;;5066544;28;20090;-77
2022/04/11 10:55:57;;;;;;;6.77;3.83;;;22.50;42.40;;;;;;5083953;28;20546;-78
2022/04/11 10:58:40;;;;;;;8.30;4.40;;;22.50;42.40;;;;;;5092678;28;20070;-76
2022/04/11 11:01:07;;;;;;;7.33;4.63;;;22.50;42.60;;;;;;5082128;28;20044;-76
2022/04/11 11:03:32;;;;;;;7.13;4.97;;;22.20;41.00;;;;;;5078464;28;20323;-76
2022/04/11 11:06:15;;;;;;;7.87;4.47;;;21.40;40.70;;;;;;5062125;28;20090;-78
2022/04/11 11:08:41;;;;;;;9.17;5.47;;;20.80;40.00;;;;;;5092243;28;20884;-78
2022/04/11 11:11:27;;;;;;;10.23;5.40;;;20.20;40.70;;;;;;5092068;28;20063;-79
2022/04/11 11:13:56;;;;;;;7.97;4.80;;;19.80;40.50;;;;;;5086004;28;20055;-78
2022/04/11 11:16:55;;;;;;;7.97;4.67;;;20.00;43.80;;;;;;5102864;28;20051;-78
2022/04/11 11:19:20;;;;;;;8.30;5.00;;;20.50;43.30;;;;;;5086633;28;20040;-78
2022/04/11 11:22:05;;;;;;;6.37;4.83;;;20.80;44.20;;;;;;5081208;28;20094;-76
2022/04/11 11:24:32;;;;;;;10.00;5.70;;;20.40;42.70;;;;;;5075685;28;20127;-76
2022/04/11 11:27:00;;;;;;;10.60;5.60;;;19.70;41.20;;;;;;5063127;28;20048;-78
2022/04/11 11:29:29;;;;;;;9.43;5.57;;;19.20;45.30;;;;;;5079858;28;20032;-76
2022/04/11 11:31:57;;;;;;;8.07;5.50;;;19.00;43.20;;;;;;5068159;28;20055;-79
2022/04/11 11:34:24;;;;;;;9.20;5.13;;;18.90;44.00;;;;;;5081023;28;20048;-77
2022/04/11 11:36:53;;;;;;;8.23;5.53;;;19.10;44.30;;;;;;5051242;28;20045;-78
2022/04/11 11:39:20;;;;;;;9.03;5.47;;;19.30;44.50;;;;;;5085645;28;20040;-78
2022/04/11 11:41:47;;;;;;;7.60;5.60;;;19.20;43.10;;;;;;5081034;28;20048;-78
2022/04/11 11:44:13;;;;;;;7.87;5.20;;;19.00;43.10;;;;;;5085795;28;20089;-78
2022/04/11 11:46:48;;;;;;;9.83;4.97;;;18.90;44.00;;;;;;5105367;28;20059;-77
2022/04/11 11:49:14;;;;;;;9.70;5.13;;;18.90;44.30;;;;;;5087960;28;20419;-77
2022/04/11 11:51:40;;;;;;;9.07;5.67;;;18.90;44.20;;;;;;5090762;28;20053;-77
2022/04/11 11:54:06;;;;;;;8.10;5.00;;;19.00;45.60;;;;;;5092332;28;20036;-77
2022/04/11 11:56:39;;;;;;;10.17;5.83;;;19.10;46.90;;;;;;5088493;28;20040;-77
2022/04/11 11:59:05;;;;;;;11.25;6.03;;;19.20;44.70;;;;;;5083294;28;20706;-77
2022/04/11 12:01:31;;;;;;;9.50;5.77;;;19.10;46.50;;;;;;5079851;28;20039;-77
2022/04/11 12:06:43;;;;;;;8.77;6.40;;;19.00;45.70;;;;;;5080537;28;20178;-77
2022/04/11 12:09:08;;;;;;;9.33;5.90;;;18.90;45.20;;;;;;5081573;28;20126;-75
2022/04/11 12:11:35;;;;;;;14.13;6.70;;;18.70;45.90;;;;;;5081379;28;20075;-81
2022/04/11 12:14:01;;;;;;;11.63;6.43;;;18.50;46.50;;;;;;5091624;28;20056;-78
2022/04/11 12:16:29;;;;;;;10.53;6.43;;;18.20;43.80;;;;;;5092698;28;20055;-79
2022/04/11 12:18:58;;;;;;;8.23;6.00;;;18.40;45.10;;;;;;5065918;28;20086;-78
2022/04/11 12:21:31;;;;;;;9.67;6.37;;;18.50;45.90;;;;;;5084448;28;20082;-76
2022/04/11 12:23:58;;;;;;;7.78;6.22;;;18.50;46.40;;;;;;5078279;28;20113;-77
2022/04/11 12:26:25;;;;;;;11.60;6.37;;;18.50;46.70;;;;;;5058052;28;20925;-77
2022/04/11 12:28:52;;;;;;;9.83;6.50;;;18.40;45.80;;;;;;5094857;28;20054;-78
2022/04/11 12:31:18;;;;;;;8.80;5.70;;;18.00;45.40;;;;;;5056446;28;20430;-78
2022/04/11 12:33:46;;;;;;;10.40;7.07;;;18.00;44.40;;;;;;5071776;28;20055;-79
2022/04/11 12:36:16;;;;;;;8.90;6.23;;;17.90;44.80;;;;;;5086184;28;20036;-76
2022/04/11 12:38:44;;;;;;;10.20;6.23;;;18.00;45.70;;;;;;5077131;28;20438;-77
2022/04/11 12:41:31;;;;;;;12.93;6.30;;;17.80;45.60;;;;;;5048865;28;20451;-80
2022/04/11 12:44:07;;;;;;;7.03;6.00;;;17.70;44.90;;;;;;5083293;28;20053;-79
2022/04/11 12:46:33;;;;;;;9.40;6.40;;;17.80;47.10;;;;;;5078514;28;20049;-79
2022/04/11 12:48:59;;;;;;;9.40;6.27;;;18.10;46.20;;;;;;5085990;28;20043;-76
2022/04/11 12:51:28;;;;;;;8.97;6.10;;;18.10;45.80;;;;;;5076212;28;20052;-77
2022/04/11 12:54:07;;;;;;;11.37;6.40;;;17.90;45.50;;;;;;5081006;28;20075;-78
2022/04/11 12:56:38;;;;;;;9.93;5.77;;;17.60;45.40;;;;;;5081756;28;20043;-78
2022/04/11 12:59:05;;;;;;;7.33;5.40;;;17.60;45.20;;;;;;5079748;28;20044;-79
2022/04/11 13:01:54;;;;;;;9.07;5.97;;;17.60;45.80;;;;;;5068033;28;20040;-79